Hovedside
METAR-TAF:

METAR-TAF

Lufthavner :

Ayacucho, Peru

breddegrad: 13-08S, lengdegrad: 074-13W, høyde over havet: 2740 m

Gjeldene værobservasjon

Denne rapporten ble laget for 9 timer og 26 minutter siden, klokken 23:00 UTC
Vind 8 kt fra Sør-sørøst, skiftende mellom Sørøst og Sør
Temperatur 22°C
Luftfuktighet 23%
Trykk 1022 hPa
Sikt 10 km eller mer
ingen skyer under 1500 m og ingen bygeskyer

METAR: SPHO 182300Z 16008KT 130V190 CAVOK 22/00 Q1022 RMK PP000

Tid: 03:26 (08:26 UTC)

Varsel

Denne rapporten ble laget for 15 timer og 15 minutter siden, klokken 17:11 UTC
Varsel gyldig fra 18. klokken 18 UTC til 19. klokken 18 UTC
Vind 6 kt fra Øst-sørøst
Sikt 10 km eller mer
ingen skyer under 1500 m og ingen bygeskyer

TAF: SPHO 181711Z 1818/1918 12006KT CAVOK TX24/1820Z TN09/1911Z

Værobservasjoner og værvarsel for over 4000 flyplasser (METAR- og TAF-rapporter).

Tilgjengelige stasjoner er representert av de røde og gule prikkene på kartet.

Hold musepekeren over prikken for å se navnet på stasjonen.

Klikk så for å se værobservasjoner og -varsler.

For å forandre kartet kan du klikke på den grønne knappen med svart kryss for å zoome inn, på den grønne knappen med strek for å zoome ut, eller på de grønne pilene for å se tilstøtende kart.


METAR-TAF: